Time;durP1;ratioP1;P1;durP2;ratioP2;P2;SDS_P1;SDS_P2;PMS_P1;PMS_P2;Temp;Humidity;BMP_temperature;BMP_pressure;BME280_temperature;BME280_humidity;BME280_pressure;Samples;Min_cycle;Max_cycle;Signal;HPM_P1;HPM_P2
2021/08/17 00:01:14;;;;;;;7.28;1.98;;;;;;;20.92;65.96;102090.22;5102455;28;20064;-64
2021/08/17 00:03:40;;;;;;;3.90;1.65;;;;;;;20.93;66.11;102077.72;5098850;28;20060;-64
2021/08/17 00:06:07;;;;;;;4.80;1.60;;;;;;;20.92;65.82;102076.91;5108653;28;20035;-64
2021/08/17 00:08:32;;;;;;;3.47;1.80;;;;;;;20.93;65.41;102077.72;5109766;28;20040;-64
2021/08/17 00:10:58;;;;;;;5.00;1.67;;;;;;;20.93;65.34;102075.06;5095078;28;20054;-64
2021/08/17 00:13:24;;;;;;;6.40;2.05;;;;;;;20.91;65.43;102077.91;5108047;28;20048;-64
2021/08/17 00:15:49;;;;;;;5.07;2.10;;;;;;;20.92;65.57;102081.41;5089420;28;20039;-64
2021/08/17 00:18:15;;;;;;;3.60;1.90;;;;;;;20.91;65.43;102077.06;5113124;28;20677;-64
2021/08/17 00:20:42;;;;;;;3.17;1.63;;;;;;;20.92;65.26;102078.72;5093197;28;20032;-64
2021/08/17 00:23:08;;;;;;;3.78;1.63;;;;;;;20.91;65.54;102075.25;5111773;28;20032;-64
2021/08/17 00:25:35;;;;;;;4.25;2.00;;;;;;;20.92;65.37;102081.41;5103521;28;20115;-64
2021/08/17 00:28:01;;;;;;;4.00;1.60;;;;;;;20.90;65.49;102084.25;5106229;28;20035;-64
2021/08/17 00:30:26;;;;;;;4.00;1.75;;;;;;;20.90;65.49;102078.91;5105581;28;20036;-64
2021/08/17 00:32:52;;;;;;;3.72;1.83;;;;;;;20.90;65.61;102080.75;5104788;28;20538;-64
2021/08/17 00:35:17;;;;;;;3.60;1.80;;;;;;;20.90;65.19;102086.91;5105058;28;20114;-64
2021/08/17 00:37:43;;;;;;;4.00;1.63;;;;;;;20.91;65.10;102077.06;5110524;28;20062;-64
2021/08/17 00:40:09;;;;;;;2.50;1.50;;;;;;;20.90;65.15;102081.56;5111037;28;20036;-64
2021/08/17 00:42:42;;;;;;;5.28;2.00;;;;;;;20.89;65.03;102082.59;5109516;28;20128;-64
2021/08/17 00:45:12;;;;;;;3.17;1.58;;;;;;;20.89;65.08;102079.91;5095001;28;20104;-64
2021/08/17 00:47:37;;;;;;;3.40;1.52;;;;;;;20.90;64.85;102080.75;5103228;28;20053;-64
2021/08/17 00:50:03;;;;;;;3.63;1.70;;;;;;;20.90;65.15;102083.41;5106975;28;20031;-64
2021/08/17 00:52:29;;;;;;;5.28;1.70;;;;;;;20.90;64.97;102078.91;5093088;28;20038;-64
2021/08/17 00:54:56;;;;;;;3.28;1.70;;;;;;;20.90;65.10;102075.41;5056675;28;20052;-64
2021/08/17 00:57:21;;;;;;;4.18;1.63;;;;;;;20.90;65.02;102084.25;5104526;28;20032;-64
2021/08/17 00:59:47;;;;;;;4.03;1.90;;;;;;;20.89;65.01;102079.91;5098180;28;20035;-64
2021/08/17 01:02:12;;;;;;;4.05;1.77;;;;;;;20.90;64.83;102075.41;5099958;28;20036;-64
2021/08/17 01:04:39;;;;;;;4.05;1.50;;;;;;;20.89;65.10;102068.41;5084095;28;20054;-64
2021/08/17 01:07:08;;;;;;;3.35;1.50;;;;;;;20.89;64.77;102065.75;5100745;28;20494;-64
2021/08/17 01:09:35;;;;;;;3.22;1.52;;;;;;;20.89;65.09;102071.09;5107850;28;20035;-64
2021/08/17 01:12:01;;;;;;;2.90;1.33;;;;;;;20.89;64.58;102058.56;5101156;28;20035;-64
2021/08/17 01:14:27;;;;;;;3.63;2.00;;;;;;;20.88;64.90;102054.25;5107499;28;20031;-64
2021/08/17 01:16:53;;;;;;;3.35;1.40;;;;;;;20.89;64.77;102052.41;5088285;28;20086;-64
2021/08/17 01:19:20;;;;;;;4.68;1.83;;;;;;;20.88;64.94;102058.75;5110278;28;20392;-64
2021/08/17 01:21:46;;;;;;;2.90;1.40;;;;;;;20.88;64.62;102056.91;5091554;28;20024;-65
2021/08/17 01:24:12;;;;;;;3.05;1.55;;;;;;;20.89;64.87;102052.41;5101639;28;20137;-64
2021/08/17 01:26:38;;;;;;;3.75;1.48;;;;;;;20.89;64.79;102047.91;5108579;28;20493;-64
2021/08/17 01:29:03;;;;;;;3.22;1.52;;;;;;;20.88;64.57;102038.25;5092138;28;20052;-65
2021/08/17 01:31:30;;;;;;;2.63;1.50;;;;;;;20.87;64.34;102031.25;5089681;28;20075;-64
2021/08/17 01:33:56;;;;;;;3.97;1.58;;;;;;;20.87;64.35;102031.25;5106080;28;20024;-64
2021/08/17 01:36:21;;;;;;;3.17;1.50;;;;;;;20.87;64.35;102025.09;5099376;28;20024;-64
2021/08/17 01:38:51;;;;;;;3.42;1.55;;;;;;;20.88;64.27;102034.75;5090981;28;20040;-64
2021/08/17 01:41:17;;;;;;;5.10;1.75;;;;;;;20.87;64.56;102033.94;5075448;28;20080;-64
2021/08/17 01:43:44;;;;;;;4.38;2.05;;;;;;;20.87;64.40;102023.25;5093156;28;20036;-64
2021/08/17 01:46:10;;;;;;;2.97;1.65;;;;;;;20.87;64.41;102035.75;5094101;28;20028;-64
2021/08/17 01:48:35;;;;;;;3.38;1.40;;;;;;;20.87;64.65;102033.94;5110285;28;20031;-65
2021/08/17 01:51:01;;;;;;;3.15;1.52;;;;;;;20.87;64.12;102033.94;5106480;28;20043;-64
2021/08/17 01:53:28;;;;;;;2.00;1.08;;;;;;;20.87;64.24;102038.44;5107895;28;20066;-64
2021/08/17 01:55:55;;;;;;;3.33;1.40;;;;;;;20.87;64.15;102033.94;5070179;28;20056;-65
2021/08/17 01:58:25;;;;;;;3.33;1.60;;;;;;;20.87;64.35;102033.09;5083925;28;20429;-64
2021/08/17 02:00:50;;;;;;;4.10;1.50;;;;;;;20.86;63.97;102028.78;5074055;28;20046;-64
2021/08/17 02:03:16;;;;;;;2.40;1.20;;;;;;;20.85;64.12;102027.94;5068341;28;20032;-64
2021/08/17 02:05:41;;;;;;;2.70;1.17;;;;;;;20.86;64.10;102028.78;5102043;28;20419;-64
2021/08/17 02:08:08;;;;;;;2.78;1.27;;;;;;;20.86;64.26;102020.75;5104012;28;20054;-64
2021/08/17 02:10:34;;;;;;;2.30;1.17;;;;;;;20.86;63.95;102026.94;5083726;28;20042;-65
2021/08/17 02:13:00;;;;;;;2.72;1.27;;;;;;;20.85;63.94;102019.94;5106442;28;20036;-64
2021/08/17 02:15:25;;;;;;;3.58;1.40;;;;;;;20.85;64.18;102011.94;5091960;28;20030;-64
2021/08/17 02:17:51;;;;;;;1.90;1.10;;;;;;;20.84;63.68;102018.28;5088919;28;20328;-64
2021/08/17 02:20:16;;;;;;;4.30;1.45;;;;;;;20.84;63.71;102022.78;5092692;28;20046;-64
2021/08/17 02:22:41;;;;;;;3.00;1.50;;;;;;;20.84;63.94;102010.28;5080332;28;20847;-64
2021/08/17 02:25:08;;;;;;;2.45;1.30;;;;;;;20.84;63.79;102014.78;5091228;28;20043;-64
2021/08/17 02:27:37;;;;;;;2.13;1.15;;;;;;;20.83;63.95;102015.78;5096882;28;20067;-64
2021/08/17 02:30:04;;;;;;;2.75;1.48;;;;;;;20.83;63.90;102021.94;5093822;28;20023;-65
2021/08/17 02:32:30;;;;;;;2.55;1.20;;;;;;;20.84;63.65;102030.78;5092317;28;20043;-64
2021/08/17 02:34:56;;;;;;;2.90;1.45;;;;;;;20.83;63.93;102008.63;5093131;28;20112;-64
2021/08/17 02:37:21;;;;;;;2.72;1.15;;;;;;;20.83;63.63;102010.47;5099383;28;20027;-64
2021/08/17 02:39:47;;;;;;;3.00;1.42;;;;;;;20.82;64.10;102014.94;5057335;28;20032;-64
2021/08/17 02:42:12;;;;;;;3.13;1.40;;;;;;;20.83;63.91;102016.63;5106052;28;20062;-64
2021/08/17 02:44:38;;;;;;;3.17;1.60;;;;;;;20.82;63.89;102014.94;5098799;28;20066;-64
2021/08/17 02:47:04;;;;;;;2.60;1.33;;;;;;;20.81;63.91;102010.59;5100055;28;20079;-64
2021/08/17 02:49:32;;;;;;;2.45;1.10;;;;;;;20.82;63.93;102016.78;5087922;28;20494;-64
2021/08/17 02:52:00;;;;;;;1.92;1.10;;;;;;;20.82;63.68;102006.94;5092298;28;20032;-64
2021/08/17 02:54:26;;;;;;;1.60;1.08;;;;;;;20.81;63.75;102002.59;5106335;28;20040;-64
2021/08/17 02:56:52;;;;;;;1.98;1.02;;;;;;;20.81;63.63;102007.94;5068407;28;20032;-65
2021/08/17 02:59:17;;;;;;;2.28;1.23;;;;;;;20.82;63.66;101998.09;5083060;28;20115;-64
2021/08/17 03:01:43;;;;;;;2.38;1.52;;;;;;;20.81;63.36;102002.59;5062646;28;20123;-65
2021/08/17 03:04:08;;;;;;;1.85;1.00;;;;;;;20.81;63.66;102002.59;5078786;28;20055;-65
2021/08/17 03:06:34;;;;;;;3.30;1.25;;;;;;;20.82;63.63;101998.09;5062550;28;20483;-64
2021/08/17 03:08:59;;;;;;;2.85;1.27;;;;;;;20.82;63.59;101987.44;5093326;28;20032;-64
2021/08/17 03:11:25;;;;;;;2.88;1.08;;;;;;;20.80;63.46;101974.28;5109182;28;20031;-64
2021/08/17 03:13:51;;;;;;;3.38;1.42;;;;;;;20.81;63.24;101989.28;5092728;28;20032;-64
2021/08/17 03:16:17;;;;;;;3.15;1.50;;;;;;;20.81;63.42;101978.59;5108917;28;20027;-64
2021/08/17 03:18:42;;;;;;;2.67;1.25;;;;;;;20.80;63.45;101982.28;5083111;28;20380;-65
2021/08/17 03:21:08;;;;;;;2.85;1.70;;;;;;;20.80;63.21;101976.13;5100080;28;20032;-64
2021/08/17 03:23:33;;;;;;;3.85;1.20;;;;;;;20.81;63.20;101975.09;5107055;28;20046;-64
2021/08/17 03:25:59;;;;;;;2.22;1.50;;;;;;;20.79;63.26;101969.94;5104275;28;20028;-64
2021/08/17 03:28:24;;;;;;;3.38;1.35;;;;;;;20.79;63.05;101966.44;5088652;28;20032;-64
2021/08/17 03:30:50;;;;;;;3.10;1.48;;;;;;;20.79;63.40;101964.63;5104968;28;20036;-64
2021/08/17 03:33:15;;;;;;;2.10;1.15;;;;;;;20.79;63.02;101972.63;5100778;28;20067;-64
2021/08/17 03:35:42;;;;;;;2.88;1.20;;;;;;;20.79;62.84;101972.63;5111317;28;20031;-64
2021/08/17 03:38:07;;;;;;;2.70;1.05;;;;;;;20.79;62.98;101972.63;5091841;28;20124;-64
2021/08/17 03:40:33;;;;;;;2.58;1.10;;;;;;;20.78;62.92;101986.13;5074864;28;20495;-64
2021/08/17 03:42:59;;;;;;;2.00;0.95;;;;;;;20.78;62.81;101983.47;5095546;28;20043;-64
2021/08/17 03:45:25;;;;;;;3.50;1.05;;;;;;;20.78;63.15;101988.78;5112345;28;20051;-64
2021/08/17 03:47:51;;;;;;;2.45;1.10;;;;;;;20.78;62.94;101988.78;5058876;28;20058;-64
2021/08/17 03:50:18;;;;;;;2.67;1.20;;;;;;;20.78;63.07;101980.78;5093825;28;20043;-64
2021/08/17 03:52:44;;;;;;;2.85;1.25;;;;;;;20.77;62.95;101979.97;5092733;28;20117;-64
2021/08/17 03:55:11;;;;;;;3.17;1.27;;;;;;;20.77;62.55;101979.97;5111857;28;20434;-64
2021/08/17 03:57:37;;;;;;;2.90;0.93;;;;;;;20.77;63.01;101969.31;5094599;28;20177;-64
2021/08/17 04:00:05;;;;;;;2.20;1.00;;;;;;;20.77;62.69;101971.13;5100835;28;20056;-64
2021/08/17 04:02:30;;;;;;;1.88;1.10;;;;;;;20.76;62.80;101975.66;5066282;28;20131;-64
2021/08/17 04:04:55;;;;;;;3.70;1.40;;;;;;;20.76;63.02;101969.47;5095375;28;20126;-64
2021/08/17 04:07:21;;;;;;;2.67;1.00;;;;;;;20.76;62.48;101966.81;5112713;28;20109;-64
2021/08/17 04:09:47;;;;;;;1.83;1.08;;;;;;;20.76;62.65;101967.66;5095954;28;20449;-64
2021/08/17 04:12:12;;;;;;;2.38;1.05;;;;;;;20.75;62.78;101963.31;5103540;28;20044;-64
2021/08/17 04:14:38;;;;;;;4.32;1.30;;;;;;;20.75;62.80;101960.66;5104664;28;20046;-64
2021/08/17 04:17:03;;;;;;;2.33;1.38;;;;;;;20.75;62.48;101960.66;5089874;28;20044;-64
2021/08/17 04:19:29;;;;;;;2.47;1.20;;;;;;;20.75;62.40;101949.97;5091224;28;20633;-64
2021/08/17 04:21:54;;;;;;;2.55;1.10;;;;;;;20.74;62.35;101961.66;5102532;28;20032;-65
2021/08/17 04:24:20;;;;;;;2.00;1.10;;;;;;;20.74;62.55;101948.31;5091191;28;20032;-64
2021/08/17 04:26:46;;;;;;;1.70;0.93;;;;;;;20.74;62.62;101959.00;5101636;28;20107;-66
2021/08/17 04:29:11;;;;;;;2.30;0.90;;;;;;;20.74;62.49;101958.16;5107039;28;20055;-64
2021/08/17 04:31:37;;;;;;;3.97;1.50;;;;;;;20.73;62.39;101959.19;5077331;28;20086;-64
2021/08/17 04:34:03;;;;;;;1.80;1.20;;;;;;;20.74;62.40;101956.31;5090624;28;20039;-64
2021/08/17 04:36:28;;;;;;;2.15;1.02;;;;;;;20.73;62.43;101959.19;5102231;28;20055;-65
2021/08/17 04:38:54;;;;;;;2.25;1.00;;;;;;;20.73;62.31;101951.16;5108888;28;20108;-64
2021/08/17 04:41:20;;;;;;;2.30;1.10;;;;;;;20.73;62.69;101972.50;5091314;28;20071;-64
2021/08/17 04:43:48;;;;;;;2.15;1.10;;;;;;;20.73;62.48;101972.50;5103167;28;20081;-64
2021/08/17 04:46:14;;;;;;;1.67;0.90;;;;;;;20.73;62.58;101977.84;5089876;28;20105;-64
2021/08/17 04:48:39;;;;;;;2.97;1.27;;;;;;;20.72;62.30;101976.19;5104221;28;20057;-64
2021/08/17 04:51:05;;;;;;;3.05;1.08;;;;;;;20.71;62.31;101975.34;5078775;28;20075;-64
2021/08/17 04:53:30;;;;;;;2.13;0.93;;;;;;;20.72;62.13;101977.00;5101567;28;20039;-64
2021/08/17 04:55:56;;;;;;;1.50;0.90;;;;;;;20.71;62.25;101983.34;5114476;28;20035;-64
2021/08/17 04:58:21;;;;;;;2.25;1.00;;;;;;;20.72;62.19;101989.50;5108325;28;20387;-64
2021/08/17 05:00:48;;;;;;;2.13;1.10;;;;;;;20.71;62.28;101977.19;5087478;28;20074;-64
2021/08/17 05:03:14;;;;;;;3.33;1.10;;;;;;;20.71;62.12;101991.34;5094983;28;20035;-64
2021/08/17 05:05:40;;;;;;;1.70;0.90;;;;;;;20.71;62.11;101985.19;5096426;28;20071;-64
2021/08/17 05:08:10;;;;;;;1.95;0.95;;;;;;;20.70;62.13;101983.53;5113231;28;20059;-64
2021/08/17 05:10:36;;;;;;;3.22;1.13;;;;;;;20.70;62.46;101995.03;5104949;28;20040;-64
2021/08/17 05:13:03;;;;;;;1.83;1.00;;;;;;;20.70;62.03;101989.69;5092491;28;20036;-64
2021/08/17 05:15:30;;;;;;;3.20;0.98;;;;;;;20.70;62.39;101995.03;5113907;28;20676;-64
2021/08/17 05:17:56;;;;;;;2.47;1.08;;;;;;;20.70;62.54;101995.03;5113899;28;20038;-65
2021/08/17 05:20:22;;;;;;;1.98;1.10;;;;;;;20.71;62.20;101991.34;5094716;28;20028;-65
2021/08/17 05:22:47;;;;;;;2.00;1.08;;;;;;;20.71;62.36;101990.53;5067373;28;20040;-64
2021/08/17 05:25:14;;;;;;;2.72;1.00;;;;;;;20.70;62.10;101992.34;5066725;28;20042;-64
2021/08/17 05:27:40;;;;;;;2.90;1.10;;;;;;;20.70;62.09;102003.03;5095245;28;20035;-64
2021/08/17 05:30:06;;;;;;;2.97;1.10;;;;;;;20.70;62.09;101987.03;5110066;28;20040;-65
2021/08/17 05:32:32;;;;;;;2.45;1.05;;;;;;;20.71;62.10;101993.19;5111197;28;20074;-64
2021/08/17 05:34:57;;;;;;;4.10;1.10;;;;;;;20.70;62.26;101983.53;5105022;28;20059;-64
2021/08/17 05:37:23;;;;;;;2.33;0.90;;;;;;;20.70;62.28;101989.69;5107696;28;20687;-64
2021/08/17 05:39:49;;;;;;;2.20;1.00;;;;;;;20.71;62.36;101990.53;5072743;28;20033;-65
2021/08/17 05:42:15;;;;;;;3.38;1.00;;;;;;;20.70;62.28;101984.34;5106763;28;20120;-64
2021/08/17 05:44:42;;;;;;;3.80;1.30;;;;;;;20.69;62.06;101989.88;5094178;28;20056;-64
2021/08/17 05:47:08;;;;;;;3.50;0.90;;;;;;;20.69;62.14;101993.38;5092959;28;20032;-64
2021/08/17 05:49:36;;;;;;;3.13;0.98;;;;;;;20.69;62.01;101998.69;5110343;28;20031;-64
2021/08/17 05:52:06;;;;;;;2.05;1.30;;;;;;;20.70;61.90;101996.84;5087692;28;20031;-64
2021/08/17 05:54:32;;;;;;;2.30;1.10;;;;;;;20.69;62.29;101993.38;5063352;28;20063;-64
2021/08/17 05:56:58;;;;;;;2.20;1.15;;;;;;;20.68;61.89;101999.72;5086655;28;20023;-64
2021/08/17 05:59:28;;;;;;;2.60;1.30;;;;;;;20.69;62.28;102003.19;5107190;28;20044;-64
2021/08/17 06:01:58;;;;;;;3.03;0.93;;;;;;;20.68;62.00;101997.03;5073205;28;20144;-64
2021/08/17 06:04:24;;;;;;;1.90;1.10;;;;;;;20.68;61.96;101991.72;5105958;28;20043;-64
2021/08/17 06:06:49;;;;;;;2.08;0.98;;;;;;;20.68;62.00;101991.72;5097090;28;20023;-65
2021/08/17 06:09:16;;;;;;;2.42;1.20;;;;;;;20.68;61.80;102001.53;5097985;28;20145;-65
2021/08/17 06:11:43;;;;;;;2.45;1.10;;;;;;;20.68;61.72;101994.38;5058295;28;20037;-64
2021/08/17 06:14:08;;;;;;;1.60;0.93;;;;;;;20.67;61.76;101995.38;5056323;28;20079;-64
2021/08/17 06:16:34;;;;;;;1.98;1.00;;;;;;;20.68;62.13;101990.88;5087448;28;20433;-64
2021/08/17 06:19:00;;;;;;;2.30;1.30;;;;;;;20.67;62.14;101995.38;5091374;28;20032;-64
2021/08/17 06:21:26;;;;;;;3.20;1.00;;;;;;;20.67;61.94;101987.38;5091123;28;20038;-64
2021/08/17 06:23:52;;;;;;;1.92;1.00;;;;;;;20.68;61.91;101997.03;5088918;28;20031;-65
2021/08/17 06:26:18;;;;;;;2.05;1.00;;;;;;;20.67;61.79;101994.53;5097576;28;20761;-64
2021/08/17 06:28:45;;;;;;;2.75;1.08;;;;;;;20.68;61.59;101989.03;5109115;28;20084;-64
2021/08/17 06:31:13;;;;;;;3.03;1.00;;;;;;;20.66;61.94;101993.69;5109846;28;20056;-64
2021/08/17 06:33:39;;;;;;;2.83;1.15;;;;;;;20.67;62.08;102000.72;5095050;28;20502;-64
2021/08/17 06:36:05;;;;;;;2.15;1.10;;;;;;;20.67;61.67;102000.72;5094523;28;20036;-64
2021/08/17 06:38:30;;;;;;;1.83;0.93;;;;;;;20.67;61.59;102006.03;5085765;28;20035;-64
2021/08/17 06:40:56;;;;;;;2.22;1.00;;;;;;;20.67;61.66;102008.72;5095568;28;20375;-67
2021/08/17 06:43:23;;;;;;;2.03;1.00;;;;;;;20.67;61.59;102002.50;5067395;28;20066;-65
2021/08/17 06:45:49;;;;;;;2.17;1.23;;;;;;;20.67;61.55;102014.03;5087113;28;20501;-64
2021/08/17 06:48:14;;;;;;;2.83;1.00;;;;;;;20.67;61.58;102007.84;5118189;28;20079;-65
2021/08/17 06:50:40;;;;;;;1.58;0.80;;;;;;;20.66;61.86;102007.03;5103953;28;20044;-65
2021/08/17 06:53:06;;;;;;;2.10;1.00;;;;;;;20.67;62.23;102007.84;5070242;28;20478;-66
2021/08/17 06:55:31;;;;;;;2.90;1.08;;;;;;;20.66;62.06;102007.03;5110052;28;20036;-67
2021/08/17 06:57:57;;;;;;;4.13;1.13;;;;;;;20.67;62.54;102007.84;5110650;28;20111;-69
2021/08/17 07:00:22;;;;;;;4.28;1.40;;;;;;;20.67;62.37;102011.38;5103837;28;20044;-64
2021/08/17 07:02:48;;;;;;;4.65;1.27;;;;;;;20.67;62.53;102016.72;5093342;28;20055;-64
2021/08/17 07:05:13;;;;;;;7.07;1.30;;;;;;;20.69;62.60;102008.53;5098185;28;20043;-64
2021/08/17 07:07:38;;;;;;;4.05;1.00;;;;;;;20.68;62.41;102014.88;5090955;28;20032;-64
2021/08/17 07:10:05;;;;;;;5.50;1.48;;;;;;;20.68;62.36;102004.22;5101991;28;20054;-64
2021/08/17 07:12:30;;;;;;;3.67;1.20;;;;;;;20.68;62.81;102007.69;5102297;28;20045;-64
2021/08/17 07:14:57;;;;;;;5.13;1.40;;;;;;;20.67;62.62;102006.03;5084730;28;20055;-65
2021/08/17 07:17:22;;;;;;;7.72;1.70;;;;;;;20.68;62.64;102001.53;5107364;28;20058;-63
2021/08/17 07:19:48;;;;;;;3.70;1.48;;;;;;;20.68;62.60;102002.38;5105153;28;20398;-67
2021/08/17 07:22:13;;;;;;;4.00;1.30;;;;;;;20.68;62.44;101998.88;5100341;28;20063;-63
2021/08/17 07:24:39;;;;;;;5.50;1.75;;;;;;;20.68;62.48;102010.38;5092638;28;20470;-63
2021/08/17 07:27:04;;;;;;;5.95;1.60;;;;;;;20.68;62.50;102010.38;5098133;28;20424;-63
2021/08/17 07:29:30;;;;;;;6.10;1.52;;;;;;;20.68;62.29;102015.69;5093185;28;20479;-63
2021/08/17 07:31:55;;;;;;;12.95;1.85;;;;;;;20.68;62.42;102013.03;5096570;28;20458;-63
2021/08/17 07:34:21;;;;;;;5.18;1.60;;;;;;;20.68;62.41;102012.22;5092725;28;20058;-63
2021/08/17 07:36:46;;;;;;;5.35;1.50;;;;;;;20.66;62.18;102009.69;5106611;28;20032;-63
2021/08/17 07:39:13;;;;;;;8.60;2.75;;;;;;;20.64;62.04;102023.19;5101776;28;20036;-64
2021/08/17 07:41:40;;;;;;;10.85;2.25;;;;;;;20.64;62.17;102027.69;5102979;28;20044;-62
2021/08/17 07:44:05;;;;;;;13.18;2.22;;;;;;;20.61;61.60;102001.38;5091897;28;20476;-63
2021/08/17 07:46:32;;;;;;;11.35;2.63;;;;;;;20.61;61.88;102004.88;5106267;28;20065;-62
2021/08/17 07:48:57;;;;;;;10.45;2.55;;;;;;;20.59;61.69;101998.06;5108443;28;20520;-62
2021/08/17 07:51:23;;;;;;;15.73;2.65;;;;;;;20.59;61.78;102003.41;5091412;28;20040;-62
2021/08/17 07:53:49;;;;;;;15.10;3.17;;;;;;;20.59;61.51;102019.41;5104934;28;20035;-62
2021/08/17 07:56:16;;;;;;;18.75;3.55;;;;;;;20.57;61.74;102011.59;5091814;28;20036;-62
2021/08/17 07:58:42;;;;;;;13.40;3.20;;;;;;;20.57;61.67;102016.91;5103846;28;20428;-62
2021/08/17 08:01:10;;;;;;;11.93;3.10;;;;;;;20.57;61.68;102013.41;5101580;28;20039;-62
2021/08/17 08:03:36;;;;;;;11.60;3.00;;;;;;;20.55;61.65;102013.59;5097196;28;20123;-62
2021/08/17 08:06:01;;;;;;;11.90;2.67;;;;;;;20.57;61.54;102016.09;5105306;28;20032;-63
2021/08/17 08:08:27;;;;;;;9.93;3.00;;;;;;;20.55;61.22;102021.59;5106748;28;20027;-62
2021/08/17 08:10:52;;;;;;;8.88;2.95;;;;;;;20.54;61.34;102011.94;5098203;28;20134;-63
2021/08/17 08:13:18;;;;;;;9.05;2.80;;;;;;;20.54;61.19;102017.28;5109891;28;20043;-63
2021/08/17 08:15:43;;;;;;;8.23;2.85;;;;;;;20.53;60.86;102020.94;5109348;28;20462;-63
2021/08/17 08:18:09;;;;;;;10.88;2.78;;;;;;;20.53;60.85;102020.09;5111581;28;20054;-63
2021/08/17 08:20:35;;;;;;;6.05;2.88;;;;;;;20.52;60.54;102023.78;5094533;28;20088;-63
2021/08/17 08:23:01;;;;;;;7.55;2.47;;;;;;;20.51;60.43;102028.28;5108913;28;20038;-63
2021/08/17 08:25:26;;;;;;;7.53;2.60;;;;;;;20.50;60.42;102018.59;5106923;28;20028;-63
2021/08/17 08:27:52;;;;;;;8.30;2.42;;;;;;;20.51;60.48;102022.94;5101936;28;20389;-63
2021/08/17 08:30:18;;;;;;;7.55;2.30;;;;;;;20.51;60.51;102027.41;5095057;28;20550;-63
2021/08/17 08:32:44;;;;;;;7.40;2.67;;;;;;;20.50;60.55;102031.91;5097197;28;20036;-63
2021/08/17 08:35:11;;;;;;;7.30;2.30;;;;;;;20.50;60.04;102039.09;5108283;28;20137;-63
2021/08/17 08:37:36;;;;;;;5.38;2.45;;;;;;;20.49;60.20;102024.94;5088791;28;20036;-63
2021/08/17 08:40:04;;;;;;;6.80;2.42;;;;;;;20.49;60.32;102021.44;5108671;28;20035;-63
2021/08/17 08:42:30;;;;;;;5.35;2.72;;;;;;;20.49;60.38;102034.75;5102739;28;20043;-63
2021/08/17 08:44:55;;;;;;;5.50;2.30;;;;;;;20.50;60.43;102023.09;5090065;28;20032;-63
2021/08/17 08:47:21;;;;;;;4.20;1.92;;;;;;;20.49;60.06;102035.59;5098656;28;20036;-63
2021/08/17 08:49:49;;;;;;;8.27;2.47;;;;;;;20.49;60.42;102022.25;5108417;28;20095;-63
2021/08/17 08:52:16;;;;;;;7.97;2.45;;;;;;;20.49;60.44;102018.78;5090186;28;20127;-63
2021/08/17 08:54:42;;;;;;;6.32;2.05;;;;;;;20.48;60.42;102017.94;5104883;28;20027;-63
2021/08/17 08:57:08;;;;;;;5.20;2.30;;;;;;;20.48;60.46;102015.28;5095346;28;20176;-63
2021/08/17 08:59:34;;;;;;;12.90;2.45;;;;;;;20.48;60.41;102019.78;5100687;28;20502;-63
2021/08/17 09:02:11;;;;;;;6.25;2.30;;;;;;;20.45;60.63;102020.13;5102109;28;20118;-63
2021/08/17 09:04:38;;;;;;;6.07;2.38;;;;;;;20.46;60.36;102014.63;5102733;28;20028;-63
2021/08/17 09:07:04;;;;;;;6.28;2.25;;;;;;;20.47;60.30;102018.13;5107615;28;20028;-63
2021/08/17 09:09:30;;;;;;;5.03;2.30;;;;;;;20.46;60.38;102009.28;5088250;28;20117;-63
2021/08/17 09:11:58;;;;;;;6.97;2.55;;;;;;;20.47;60.58;102010.13;5108907;28;20477;-63
2021/08/17 09:14:26;;;;;;;3.97;1.80;;;;;;;20.47;60.42;101999.47;5102045;28;20181;-63
2021/08/17 09:17:00;;;;;;;6.55;2.42;;;;;;;20.46;60.70;102009.28;5105393;28;20032;-63
2021/08/17 09:19:34;;;;;;;6.82;2.70;;;;;;;20.46;60.33;102003.13;5107515;28;20043;-63
2021/08/17 09:22:16;;;;;;;6.35;2.33;;;;;;;20.41;60.49;102000.13;5096485;28;20385;-63
2021/08/17 09:24:51;;;;;;;8.75;2.83;;;;;;;20.43;60.26;102004.31;5107711;28;20490;-63
2021/08/17 09:27:19;;;;;;;5.35;2.55;;;;;;;20.44;60.19;102005.16;5104366;28;20028;-63
2021/08/17 09:29:48;;;;;;;6.00;2.20;;;;;;;20.44;60.56;102008.63;5108472;28;20035;-63
2021/08/17 09:32:20;;;;;;;5.55;1.90;;;;;;;20.43;60.24;102008.81;5112907;28;20051;-63
2021/08/17 09:34:51;;;;;;;4.20;2.10;;;;;;;20.43;60.08;102006.97;5106568;28;20047;-63
2021/08/17 09:37:17;;;;;;;3.72;1.90;;;;;;;20.44;60.56;102018.47;5108267;28;20084;-63
2021/08/17 09:39:46;;;;;;;4.82;2.03;;;;;;;20.45;60.68;102020.97;5078945;28;20762;-63
2021/08/17 09:42:17;;;;;;;5.68;2.08;;;;;;;20.45;60.41;102020.13;5106561;28;20034;-64
2021/08/17 09:44:47;;;;;;;3.50;1.90;;;;;;;20.45;60.36;102012.97;5108530;28;20166;-63
2021/08/17 09:47:13;;;;;;;4.25;1.85;;;;;;;20.46;60.67;102008.47;5105757;28;20600;-63
2021/08/17 09:49:39;;;;;;;4.18;2.03;;;;;;;20.45;60.61;102012.97;5114152;28;20122;-63
2021/08/17 09:52:11;;;;;;;5.15;2.13;;;;;;;20.46;60.23;102008.47;5104156;28;20131;-63
2021/08/17 09:54:48;;;;;;;3.85;1.85;;;;;;;20.46;60.68;102003.97;5110835;28;21056;-63
2021/08/17 09:57:15;;;;;;;4.47;1.77;;;;;;;20.47;60.44;102007.44;5114279;28;20087;-62
2021/08/17 09:59:43;;;;;;;5.80;2.20;;;;;;;20.46;60.48;102001.28;5099471;28;20020;-62
2021/08/17 10:02:10;;;;;;;2.80;1.52;;;;;;;20.47;60.66;102000.28;5104316;28;20040;-63
2021/08/17 10:04:37;;;;;;;4.15;2.05;;;;;;;20.49;60.24;102000.13;5113259;28;20126;-62
2021/08/17 10:07:05;;;;;;;3.95;2.00;;;;;;;20.48;60.46;101996.63;5100802;28;20032;-63
2021/08/17 10:09:32;;;;;;;4.53;2.03;;;;;;;20.50;60.51;102001.78;5081706;28;20044;-62
2021/08/17 10:11:58;;;;;;;4.38;2.00;;;;;;;20.50;60.40;102013.25;5097804;28;20027;-62
2021/08/17 10:14:24;;;;;;;4.80;1.88;;;;;;;20.50;60.55;102010.59;5114033;28;20047;-63
2021/08/17 10:16:50;;;;;;;6.75;1.98;;;;;;;20.50;60.64;102018.59;5094603;28;20032;-63
2021/08/17 10:19:21;;;;;;;4.68;1.70;;;;;;;20.50;60.47;102007.09;5103072;28;20413;-62
2021/08/17 10:21:49;;;;;;;3.08;1.60;;;;;;;20.50;60.73;102007.94;5091219;28;20032;-62
2021/08/17 10:24:35;;;;;;;3.53;1.58;;;;;;;20.47;60.60;102007.44;5103909;28;20385;-62
2021/08/17 10:27:23;;;;;;;5.75;2.30;;;;;;;20.47;60.81;102002.97;5105000;28;20030;-62
2021/08/17 10:30:21;;;;;;;4.65;1.70;;;;;;;20.47;60.54;101999.47;5110160;28;20076;-62
2021/08/17 10:33:00;;;;;;;5.13;1.90;;;;;;;20.51;60.82;102006.09;5090666;28;20040;-62
2021/08/17 10:35:34;;;;;;;3.33;1.67;;;;;;;20.51;60.72;102014.09;5100422;28;20059;-62
2021/08/17 10:38:09;;;;;;;3.30;1.60;;;;;;;20.50;60.75;102009.78;5079183;28;20024;-62
2021/08/17 10:40:52;;;;;;;;;;;;;;;20.44;61.06;102015.81;5106862;28;20032;-62
2021/08/17 10:43:42;;;;;;;4.22;1.70;;;;;;;20.50;60.81;102005.25;5073139;28;19912;-63
2021/08/17 10:46:10;;;;;;;3.85;1.73;;;;;;;20.52;60.67;102023.78;5103394;28;20040;-62
2021/08/17 10:48:50;;;;;;;3.63;1.60;;;;;;;20.49;61.07;102016.09;5101510;28;20039;-62
2021/08/17 10:51:19;;;;;;;4.25;1.70;;;;;;;20.51;60.87;102011.44;5097907;28;20031;-63
2021/08/17 10:54:03;;;;;;;2.72;1.60;;;;;;;20.52;60.68;102013.94;5103004;28;20036;-62
2021/08/17 10:56:30;;;;;;;2.88;1.90;;;;;;;20.51;60.89;101995.44;5106119;28;20483;-63
2021/08/17 10:58:57;;;;;;;3.00;1.38;;;;;;;20.52;60.98;102005.13;5103949;28;20487;-63
2021/08/17 11:01:34;;;;;;;3.35;1.67;;;;;;;20.50;60.99;102004.44;5089375;28;20460;-63
2021/08/17 11:04:00;;;;;;;5.28;2.03;;;;;;;20.51;60.78;102006.09;5112998;28;20027;-62
2021/08/17 11:06:52;;;;;;;2.95;1.50;;;;;;;20.47;60.75;102004.78;5098129;28;20091;-63
2021/08/17 11:09:35;;;;;;;4.63;1.63;;;;;;;20.50;60.74;101989.28;5112880;28;20483;-62
2021/08/17 11:12:05;;;;;;;3.08;1.55;;;;;;;20.51;60.89;102000.75;5078830;28;20023;-62
2021/08/17 11:14:33;;;;;;;2.67;1.60;;;;;;;20.51;60.90;101992.78;5105739;28;20038;-62
2021/08/17 11:17:13;;;;;;;3.10;1.70;;;;;;;20.50;60.77;101993.78;5106677;28;20032;-63
2021/08/17 11:19:42;;;;;;;2.95;1.40;;;;;;;20.50;61.07;102004.44;5105793;28;20036;-62
2021/08/17 11:22:13;;;;;;;2.63;1.55;;;;;;;20.50;60.95;101999.09;5096374;28;20072;-62
2021/08/17 11:24:44;;;;;;;2.72;1.52;;;;;;;20.49;60.97;101987.63;5109720;28;20027;-62